<?xml version="1.0" encoding="utf-8"?>
<gpx xmlns:xsi="http://www.w3.org/2001/XMLSchema-instance" xmlns:xsd="http://www.w3.org/2001/XMLSchema" version="1.1" creator="Shapelink.com" xmlns="http://www.topografix.com/GPX/1/1" xmlns:gpxtpx="http://www.garmin.com/xmlschemas/TrackPointExtension/v1">
  <metadata>
    <name>Ejecutar 6.16 km, 2020-01-25</name>
    <desc></desc>
    <author><name>Per Rooth</name></author> 
    <time>2020-01-25T09:14:59Z</time>
  </metadata>
  <trk>
    <name>Ejecutar 6.16 km, 2020-01-25</name>
    <trkseg>
      <trkpt lat="56.904295478774" lon="14.834839573943">
        <ele>164.2</ele>
        <time>2020-01-25T09:14:59Z</time>
      </trkpt>
      <trkpt lat="56.904262370269" lon="14.834833874251">
        <ele>163.8</ele>
        <time>2020-01-25T09:15:00Z</time>
      </trkpt>
      <trkpt lat="56.904217946199" lon="14.834769585078">
        <ele>165.6</ele>
        <time>2020-01-25T09:15:02Z</time>
      </trkpt>
      <trkpt lat="56.904155417225" lon="14.834730776881">
        <ele>164.4</ele>
        <time>2020-01-25T09:15:04Z</time>
      </trkpt>
      <trkpt lat="56.904069418931" lon="14.834645281501">
        <ele>163.4</ele>
        <time>2020-01-25T09:15:07Z</time>
      </trkpt>
      <trkpt lat="56.903944947716" lon="14.834387957171">
        <ele>163.6</ele>
        <time>2020-01-25T09:15:13Z</time>
      </trkpt>
      <trkpt lat="56.903817375198" lon="14.83416005331">
        <ele>163.4</ele>
        <time>2020-01-25T09:15:20Z</time>
      </trkpt>
      <trkpt lat="56.903651497397" lon="14.833934077286">
        <ele>164</ele>
        <time>2020-01-25T09:15:27Z</time>
      </trkpt>
      <trkpt lat="56.903464832484" lon="14.833818155609">
        <ele>164.4</ele>
        <time>2020-01-25T09:15:34Z</time>
      </trkpt>
      <trkpt lat="56.903437842766" lon="14.833809773709">
        <ele>164.2</ele>
        <time>2020-01-25T09:15:35Z</time>
      </trkpt>
      <trkpt lat="56.903315802302" lon="14.833886384275">
        <ele>164.2</ele>
        <time>2020-01-25T09:15:40Z</time>
      </trkpt>
      <trkpt lat="56.903239862288" lon="14.834143876243">
        <ele>164.6</ele>
        <time>2020-01-25T09:15:46Z</time>
      </trkpt>
      <trkpt lat="56.903154702184" lon="14.834437829476">
        <ele>165</ele>
        <time>2020-01-25T09:15:53Z</time>
      </trkpt>
      <trkpt lat="56.903108434096" lon="14.834609406969">
        <ele>164.8</ele>
        <time>2020-01-25T09:15:57Z</time>
      </trkpt>
      <trkpt lat="56.903009695314" lon="14.834953651602">
        <ele>163.8</ele>
        <time>2020-01-25T09:16:03Z</time>
      </trkpt>
      <trkpt lat="56.902959068638" lon="14.835230757216">
        <ele>163.4</ele>
        <time>2020-01-25T09:16:08Z</time>
      </trkpt>
      <trkpt lat="56.902868125023" lon="14.835548515045">
        <ele>162.4</ele>
        <time>2020-01-25T09:16:14Z</time>
      </trkpt>
      <trkpt lat="56.90282646698" lon="14.835764432789">
        <ele>161.4</ele>
        <time>2020-01-25T09:16:18Z</time>
      </trkpt>
      <trkpt lat="56.902816743976" lon="14.835816652026">
        <ele>161.2</ele>
        <time>2020-01-25T09:16:19Z</time>
      </trkpt>
      <trkpt lat="56.902713478968" lon="14.836142456479">
        <ele>160.6</ele>
        <time>2020-01-25T09:16:26Z</time>
      </trkpt>
      <trkpt lat="56.902669222536" lon="14.836286206064">
        <ele>160.2</ele>
        <time>2020-01-25T09:16:29Z</time>
      </trkpt>
      <trkpt lat="56.902560425474" lon="14.836580829849">
        <ele>160</ele>
        <time>2020-01-25T09:16:35Z</time>
      </trkpt>
      <trkpt lat="56.902492615903" lon="14.836769087323">
        <ele>159.8</ele>
        <time>2020-01-25T09:16:39Z</time>
      </trkpt>
      <trkpt lat="56.902383232108" lon="14.837085084953">
        <ele>159.2</ele>
        <time>2020-01-25T09:16:46Z</time>
      </trkpt>
      <trkpt lat="56.90235037506" lon="14.837178124043">
        <ele>159.2</ele>
        <time>2020-01-25T09:16:48Z</time>
      </trkpt>
      <trkpt lat="56.902287259353" lon="14.837266050174">
        <ele>159.6</ele>
        <time>2020-01-25T09:16:51Z</time>
      </trkpt>
      <trkpt lat="56.902163626328" lon="14.8370275013">
        <ele>159.2</ele>
        <time>2020-01-25T09:16:57Z</time>
      </trkpt>
      <trkpt lat="56.902032449593" lon="14.836739583035">
        <ele>159</ele>
        <time>2020-01-25T09:17:04Z</time>
      </trkpt>
      <trkpt lat="56.902014596146" lon="14.836702954132">
        <ele>159</ele>
        <time>2020-01-25T09:17:05Z</time>
      </trkpt>
      <trkpt lat="56.901892807139" lon="14.836453257331">
        <ele>159.4</ele>
        <time>2020-01-25T09:17:11Z</time>
      </trkpt>
      <trkpt lat="56.901829272337" lon="14.836275058137">
        <ele>160.2</ele>
        <time>2020-01-25T09:17:15Z</time>
      </trkpt>
      <trkpt lat="56.901724414768" lon="14.8359797638">
        <ele>161</ele>
        <time>2020-01-25T09:17:22Z</time>
      </trkpt>
      <trkpt lat="56.901711339004" lon="14.835937602843">
        <ele>161.4</ele>
        <time>2020-01-25T09:17:23Z</time>
      </trkpt>
      <trkpt lat="56.901632716782" lon="14.835629819475">
        <ele>162.4</ele>
        <time>2020-01-25T09:17:30Z</time>
      </trkpt>
      <trkpt lat="56.901624083425" lon="14.835585227767">
        <ele>162.8</ele>
        <time>2020-01-25T09:17:31Z</time>
      </trkpt>
      <trkpt lat="56.901527188661" lon="14.835309379438">
        <ele>163.6</ele>
        <time>2020-01-25T09:17:38Z</time>
      </trkpt>
      <trkpt lat="56.901469353551" lon="14.835192200476">
        <ele>163.8</ele>
        <time>2020-01-25T09:17:41Z</time>
      </trkpt>
      <trkpt lat="56.901435406856" lon="14.835106956553">
        <ele>164.2</ele>
        <time>2020-01-25T09:17:43Z</time>
      </trkpt>
      <trkpt lat="56.90136214905" lon="14.834786348878">
        <ele>165</ele>
        <time>2020-01-25T09:17:49Z</time>
      </trkpt>
      <trkpt lat="56.901293668927" lon="14.834447887756">
        <ele>165</ele>
        <time>2020-01-25T09:17:55Z</time>
      </trkpt>
      <trkpt lat="56.901232061962" lon="14.834103140209">
        <ele>164.8</ele>
        <time>2020-01-25T09:18:01Z</time>
      </trkpt>
      <trkpt lat="56.901170371178" lon="14.833749424029">
        <ele>164.6</ele>
        <time>2020-01-25T09:18:08Z</time>
      </trkpt>
      <trkpt lat="56.901131060067" lon="14.833416159685">
        <ele>164.2</ele>
        <time>2020-01-25T09:18:15Z</time>
      </trkpt>
      <trkpt lat="56.901060652107" lon="14.833068562292">
        <ele>164</ele>
        <time>2020-01-25T09:18:22Z</time>
      </trkpt>
      <trkpt lat="56.901034332941" lon="14.832905701975">
        <ele>163.8</ele>
        <time>2020-01-25T09:18:25Z</time>
      </trkpt>
      <trkpt lat="56.900974737632" lon="14.832563217541">
        <ele>163.4</ele>
        <time>2020-01-25T09:18:32Z</time>
      </trkpt>
      <trkpt lat="56.900909610269" lon="14.832233389776">
        <ele>164</ele>
        <time>2020-01-25T09:18:38Z</time>
      </trkpt>
      <trkpt lat="56.900848841494" lon="14.831912195368">
        <ele>164</ele>
        <time>2020-01-25T09:18:44Z</time>
      </trkpt>
      <trkpt lat="56.900775918964" lon="14.831607597122">
        <ele>164</ele>
        <time>2020-01-25T09:18:50Z</time>
      </trkpt>
      <trkpt lat="56.900692686697" lon="14.831279864832">
        <ele>164</ele>
        <time>2020-01-25T09:18:57Z</time>
      </trkpt>
      <trkpt lat="56.900650609559" lon="14.831093451376">
        <ele>164</ele>
        <time>2020-01-25T09:19:01Z</time>
      </trkpt>
      <trkpt lat="56.900569305129" lon="14.830753900607">
        <ele>164</ele>
        <time>2020-01-25T09:19:08Z</time>
      </trkpt>
      <trkpt lat="56.900489760898" lon="14.830449469999">
        <ele>163.6</ele>
        <time>2020-01-25T09:19:14Z</time>
      </trkpt>
      <trkpt lat="56.90038649589" lon="14.830137914776">
        <ele>163.2</ele>
        <time>2020-01-25T09:19:21Z</time>
      </trkpt>
      <trkpt lat="56.900251295843" lon="14.829869777795">
        <ele>163.2</ele>
        <time>2020-01-25T09:19:28Z</time>
      </trkpt>
      <trkpt lat="56.900112491579" lon="14.829649250006">
        <ele>163</ele>
        <time>2020-01-25T09:19:34Z</time>
      </trkpt>
      <trkpt lat="56.900090111906" lon="14.829620080994">
        <ele>162.6</ele>
        <time>2020-01-25T09:19:35Z</time>
      </trkpt>
      <trkpt lat="56.899928508874" lon="14.829417741928">
        <ele>161.6</ele>
        <time>2020-01-25T09:19:42Z</time>
      </trkpt>
      <trkpt lat="56.899758104847" lon="14.829289666496">
        <ele>161.2</ele>
        <time>2020-01-25T09:19:48Z</time>
      </trkpt>
      <trkpt lat="56.899567835717" lon="14.829189083696">
        <ele>161.4</ele>
        <time>2020-01-25T09:19:54Z</time>
      </trkpt>
      <trkpt lat="56.89936893323" lon="14.829071820915">
        <ele>161</ele>
        <time>2020-01-25T09:20:01Z</time>
      </trkpt>
      <trkpt lat="56.899237169762" lon="14.828842156855">
        <ele>160.8</ele>
        <time>2020-01-25T09:20:07Z</time>
      </trkpt>
      <trkpt lat="56.899174221693" lon="14.828530098718">
        <ele>161.2</ele>
        <time>2020-01-25T09:20:14Z</time>
      </trkpt>
      <trkpt lat="56.899108423778" lon="14.828147381164">
        <ele>161.2</ele>
        <time>2020-01-25T09:20:19Z</time>
      </trkpt>
      <trkpt lat="56.899015636145" lon="14.827860468727">
        <ele>161</ele>
        <time>2020-01-25T09:20:24Z</time>
      </trkpt>
      <trkpt lat="56.898878340623" lon="14.827640360033">
        <ele>161</ele>
        <time>2020-01-25T09:20:30Z</time>
      </trkpt>
      <trkpt lat="56.898722521102" lon="14.827456125871">
        <ele>161</ele>
        <time>2020-01-25T09:20:36Z</time>
      </trkpt>
      <trkpt lat="56.898556810939" lon="14.827231155675">
        <ele>160.6</ele>
        <time>2020-01-25T09:20:43Z</time>
      </trkpt>
      <trkpt lat="56.898406774929" lon="14.827009705877">
        <ele>160.4</ele>
        <time>2020-01-25T09:20:50Z</time>
      </trkpt>
      <trkpt lat="56.898312730011" lon="14.826908284887">
        <ele>160.6</ele>
        <time>2020-01-25T09:20:54Z</time>
      </trkpt>
      <trkpt lat="56.898133692627" lon="14.826742490905">
        <ele>161.4</ele>
        <time>2020-01-25T09:21:01Z</time>
      </trkpt>
      <trkpt lat="56.898091364032" lon="14.826719943594">
        <ele>161.4</ele>
        <time>2020-01-25T09:21:03Z</time>
      </trkpt>
      <trkpt lat="56.8980219619" lon="14.826899902987">
        <ele>161.8</ele>
        <time>2020-01-25T09:21:07Z</time>
      </trkpt>
      <trkpt lat="56.897912661924" lon="14.827168291425">
        <ele>161.4</ele>
        <time>2020-01-25T09:21:12Z</time>
      </trkpt>
      <trkpt lat="56.897748963417" lon="14.827369121749">
        <ele>161.2</ele>
        <time>2020-01-25T09:21:19Z</time>
      </trkpt>
      <trkpt lat="56.897572524422" lon="14.827533574627">
        <ele>160.8</ele>
        <time>2020-01-25T09:21:25Z</time>
      </trkpt>
      <trkpt lat="56.897407484811" lon="14.82768922651">
        <ele>160.8</ele>
        <time>2020-01-25T09:21:31Z</time>
      </trkpt>
      <trkpt lat="56.89738158474" lon="14.827713031106">
        <ele>160.6</ele>
        <time>2020-01-25T09:21:32Z</time>
      </trkpt>
      <trkpt lat="56.89719969751" lon="14.827765250343">
        <ele>160.2</ele>
        <time>2020-01-25T09:21:39Z</time>
      </trkpt>
      <trkpt lat="56.897020241031" lon="14.82786021727">
        <ele>160.4</ele>
        <time>2020-01-25T09:21:45Z</time>
      </trkpt>
      <trkpt lat="56.896833157023" lon="14.82795996188">
        <ele>160.8</ele>
        <time>2020-01-25T09:21:51Z</time>
      </trkpt>
      <trkpt lat="56.896701309736" lon="14.828020898293">
        <ele>160.6</ele>
        <time>2020-01-25T09:21:55Z</time>
      </trkpt>
      <trkpt lat="56.896522523809" lon="14.828084181638">
        <ele>160.4</ele>
        <time>2020-01-25T09:22:01Z</time>
      </trkpt>
      <trkpt lat="56.896341055674" lon="14.828144112223">
        <ele>160.6</ele>
        <time>2020-01-25T09:22:07Z</time>
      </trkpt>
      <trkpt lat="56.896140057712" lon="14.828207647025">
        <ele>161</ele>
        <time>2020-01-25T09:22:14Z</time>
      </trkpt>
      <trkpt lat="56.895954733903" lon="14.828261458823">
        <ele>160.8</ele>
        <time>2020-01-25T09:22:20Z</time>
      </trkpt>
      <trkpt lat="56.895755999054" lon="14.828186776094">
        <ele>160.6</ele>
        <time>2020-01-25T09:22:26Z</time>
      </trkpt>
      <trkpt lat="56.895604705759" lon="14.827971947997">
        <ele>160.4</ele>
        <time>2020-01-25T09:22:32Z</time>
      </trkpt>
      <trkpt lat="56.895461542907" lon="14.827768519284">
        <ele>160.2</ele>
        <time>2020-01-25T09:22:38Z</time>
      </trkpt>
      <trkpt lat="56.895334640941" lon="14.827551595712">
        <ele>160.6</ele>
        <time>2020-01-25T09:22:44Z</time>
      </trkpt>
      <trkpt lat="56.895346124144" lon="14.827202405758">
        <ele>160.4</ele>
        <time>2020-01-25T09:22:50Z</time>
      </trkpt>
      <trkpt lat="56.895375293156" lon="14.826858747858">
        <ele>160.2</ele>
        <time>2020-01-25T09:22:56Z</time>
      </trkpt>
      <trkpt lat="56.89532131372" lon="14.826551718861">
        <ele>160.2</ele>
        <time>2020-01-25T09:23:02Z</time>
      </trkpt>
      <trkpt lat="56.895170355701" lon="14.826315768376">
        <ele>160.6</ele>
        <time>2020-01-25T09:23:09Z</time>
      </trkpt>
      <trkpt lat="56.895017469845" lon="14.826145867263">
        <ele>160.8</ele>
        <time>2020-01-25T09:23:15Z</time>
      </trkpt>
      <trkpt lat="56.894993665249" lon="14.826151902231">
        <ele>160.8</ele>
        <time>2020-01-25T09:23:16Z</time>
      </trkpt>
      <trkpt lat="56.894909930068" lon="14.826294813626">
        <ele>161</ele>
        <time>2020-01-25T09:23:20Z</time>
      </trkpt>
      <trkpt lat="56.894792918744" lon="14.826550629214">
        <ele>160.8</ele>
        <time>2020-01-25T09:23:25Z</time>
      </trkpt>
      <trkpt lat="56.894617066482" lon="14.826605111564">
        <ele>160.8</ele>
        <time>2020-01-25T09:23:31Z</time>
      </trkpt>
      <trkpt lat="56.894454289984" lon="14.826472677544">
        <ele>161.6</ele>
        <time>2020-01-25T09:23:37Z</time>
      </trkpt>
      <trkpt lat="56.894348594225" lon="14.826179394863">
        <ele>161.8</ele>
        <time>2020-01-25T09:23:43Z</time>
      </trkpt>
      <trkpt lat="56.89426603251" lon="14.825880999223">
        <ele>160.8</ele>
        <time>2020-01-25T09:23:49Z</time>
      </trkpt>
      <trkpt lat="56.89419897731" lon="14.825803131372">
        <ele>160.8</ele>
        <time>2020-01-25T09:23:52Z</time>
      </trkpt>
      <trkpt lat="56.894115661224" lon="14.825831881289">
        <ele>160.6</ele>
        <time>2020-01-25T09:23:55Z</time>
      </trkpt>
      <trkpt lat="56.893935701831" lon="14.82590136724">
        <ele>159.6</ele>
        <time>2020-01-25T09:24:01Z</time>
      </trkpt>
      <trkpt lat="56.893796562291" lon="14.826029275034">
        <ele>159.6</ele>
        <time>2020-01-25T09:24:06Z</time>
      </trkpt>
      <trkpt lat="56.893618363097" lon="14.826217951603">
        <ele>159</ele>
        <time>2020-01-25T09:24:12Z</time>
      </trkpt>
      <trkpt lat="56.893435972953" lon="14.826294143074">
        <ele>158.8</ele>
        <time>2020-01-25T09:24:17Z</time>
      </trkpt>
      <trkpt lat="56.893236986647" lon="14.826319959326">
        <ele>158.8</ele>
        <time>2020-01-25T09:24:23Z</time>
      </trkpt>
      <trkpt lat="56.893057027254" lon="14.826326748665">
        <ele>159</ele>
        <time>2020-01-25T09:24:29Z</time>
      </trkpt>
      <trkpt lat="56.892900453362" lon="14.826330855796">
        <ele>159.2</ele>
        <time>2020-01-25T09:24:34Z</time>
      </trkpt>
      <trkpt lat="56.892708256395" lon="14.826321216611">
        <ele>159.2</ele>
        <time>2020-01-25T09:24:41Z</time>
      </trkpt>
      <trkpt lat="56.892511868478" lon="14.826307721752">
        <ele>159</ele>
        <time>2020-01-25T09:24:48Z</time>
      </trkpt>
      <trkpt lat="56.892327718135" lon="14.826286515545">
        <ele>158.8</ele>
        <time>2020-01-25T09:24:54Z</time>
      </trkpt>
      <trkpt lat="56.892169300225" lon="14.826300429499">
        <ele>158.4</ele>
        <time>2020-01-25T09:25:00Z</time>
      </trkpt>
      <trkpt lat="56.891965033322" lon="14.82633806423">
        <ele>158.8</ele>
        <time>2020-01-25T09:25:06Z</time>
      </trkpt>
      <trkpt lat="56.891777781676" lon="14.826347619596">
        <ele>158.2</ele>
        <time>2020-01-25T09:25:11Z</time>
      </trkpt>
      <trkpt lat="56.891581393759" lon="14.826325659018">
        <ele>158.4</ele>
        <time>2020-01-25T09:25:17Z</time>
      </trkpt>
      <trkpt lat="56.891401518185" lon="14.82628525826">
        <ele>159.2</ele>
        <time>2020-01-25T09:25:23Z</time>
      </trkpt>
      <trkpt lat="56.891316106624" lon="14.826279810025">
        <ele>159.4</ele>
        <time>2020-01-25T09:25:25Z</time>
      </trkpt>
      <trkpt lat="56.891107145857" lon="14.826275702894">
        <ele>159.6</ele>
        <time>2020-01-25T09:25:31Z</time>
      </trkpt>
      <trkpt lat="56.89090991975" lon="14.826332532176">
        <ele>160</ele>
        <time>2020-01-25T09:25:38Z</time>
      </trkpt>
      <trkpt lat="56.890730798547" lon="14.826399671195">
        <ele>159.2</ele>
        <time>2020-01-25T09:25:45Z</time>
      </trkpt>
      <trkpt lat="56.890529130033" lon="14.826446945111">
        <ele>158.6</ele>
        <time>2020-01-25T09:25:53Z</time>
      </trkpt>
      <trkpt lat="56.890473809493" lon="14.826440407229">
        <ele>158.4</ele>
        <time>2020-01-25T09:25:55Z</time>
      </trkpt>
      <trkpt lat="56.890259232853" lon="14.826404951792">
        <ele>158.8</ele>
        <time>2020-01-25T09:26:01Z</time>
      </trkpt>
      <trkpt lat="56.890188489617" lon="14.826390954019">
        <ele>158.6</ele>
        <time>2020-01-25T09:26:03Z</time>
      </trkpt>
      <trkpt lat="56.889991179691" lon="14.826276289627">
        <ele>158.6</ele>
        <time>2020-01-25T09:26:09Z</time>
      </trkpt>
      <trkpt lat="56.889798731267" lon="14.826117955536">
        <ele>158.2</ele>
        <time>2020-01-25T09:26:15Z</time>
      </trkpt>
      <trkpt lat="56.889628830154" lon="14.825954843762">
        <ele>159</ele>
        <time>2020-01-25T09:26:21Z</time>
      </trkpt>
      <trkpt lat="56.88944308725" lon="14.825793073092">
        <ele>159.2</ele>
        <time>2020-01-25T09:26:28Z</time>
      </trkpt>
      <trkpt lat="56.889292464507" lon="14.825584615239">
        <ele>159.4</ele>
        <time>2020-01-25T09:26:35Z</time>
      </trkpt>
      <trkpt lat="56.889112924209" lon="14.825678073424">
        <ele>159</ele>
        <time>2020-01-25T09:26:42Z</time>
      </trkpt>
      <trkpt lat="56.888933635368" lon="14.825725682616">
        <ele>159.6</ele>
        <time>2020-01-25T09:26:47Z</time>
      </trkpt>
      <trkpt lat="56.888735151976" lon="14.825749319574">
        <ele>159</ele>
        <time>2020-01-25T09:26:52Z</time>
      </trkpt>
      <trkpt lat="56.888520072422" lon="14.825736662905">
        <ele>159.4</ele>
        <time>2020-01-25T09:26:58Z</time>
      </trkpt>
      <trkpt lat="56.888312620397" lon="14.825687209695">
        <ele>158.8</ele>
        <time>2020-01-25T09:27:04Z</time>
      </trkpt>
      <trkpt lat="56.888119333783" lon="14.825566677973">
        <ele>158.8</ele>
        <time>2020-01-25T09:27:10Z</time>
      </trkpt>
      <trkpt lat="56.887949767946" lon="14.825382359992">
        <ele>159</ele>
        <time>2020-01-25T09:27:16Z</time>
      </trkpt>
      <trkpt lat="56.887805515447" lon="14.825183708962">
        <ele>158.6</ele>
        <time>2020-01-25T09:27:22Z</time>
      </trkpt>
      <trkpt lat="56.887634357049" lon="14.825135764494">
        <ele>159.8</ele>
        <time>2020-01-25T09:27:28Z</time>
      </trkpt>
      <trkpt lat="56.887439729331" lon="14.825207932653">
        <ele>159.6</ele>
        <time>2020-01-25T09:27:34Z</time>
      </trkpt>
      <trkpt lat="56.887244263423" lon="14.825274987853">
        <ele>159.6</ele>
        <time>2020-01-25T09:27:41Z</time>
      </trkpt>
      <trkpt lat="56.887053239922" lon="14.82534900003">
        <ele>159.8</ele>
        <time>2020-01-25T09:27:48Z</time>
      </trkpt>
      <trkpt lat="56.886870095407" lon="14.825431729383">
        <ele>160</ele>
        <time>2020-01-25T09:27:54Z</time>
      </trkpt>
      <trkpt lat="56.886686196521" lon="14.825499119859">
        <ele>159.8</ele>
        <time>2020-01-25T09:27:59Z</time>
      </trkpt>
      <trkpt lat="56.886510847173" lon="14.825581765393">
        <ele>160.2</ele>
        <time>2020-01-25T09:28:04Z</time>
      </trkpt>
      <trkpt lat="56.886333150893" lon="14.825634068449">
        <ele>160.4</ele>
        <time>2020-01-25T09:28:10Z</time>
      </trkpt>
      <trkpt lat="56.886301048216" lon="14.82565074843">
        <ele>160.6</ele>
        <time>2020-01-25T09:28:11Z</time>
      </trkpt>
      <trkpt lat="56.886101056082" lon="14.825719647648">
        <ele>160.6</ele>
        <time>2020-01-25T09:28:17Z</time>
      </trkpt>
      <trkpt lat="56.885911960418" lon="14.825697016518">
        <ele>160.4</ele>
        <time>2020-01-25T09:28:23Z</time>
      </trkpt>
      <trkpt lat="56.885699814529" lon="14.825629290766">
        <ele>160.4</ele>
        <time>2020-01-25T09:28:29Z</time>
      </trkpt>
      <trkpt lat="56.885544749379" lon="14.825406583683">
        <ele>160</ele>
        <time>2020-01-25T09:28:36Z</time>
      </trkpt>
      <trkpt lat="56.88550946158" lon="14.825051191123">
        <ele>160.4</ele>
        <time>2020-01-25T09:28:42Z</time>
      </trkpt>
      <trkpt lat="56.885492781599" lon="14.824691356156">
        <ele>160.6</ele>
        <time>2020-01-25T09:28:48Z</time>
      </trkpt>
      <trkpt lat="56.885469647555" lon="14.824319367434">
        <ele>160.4</ele>
        <time>2020-01-25T09:28:54Z</time>
      </trkpt>
      <trkpt lat="56.885452716117" lon="14.823969255471">
        <ele>161</ele>
        <time>2020-01-25T09:29:00Z</time>
      </trkpt>
      <trkpt lat="56.885426229313" lon="14.823627273951">
        <ele>161</ele>
        <time>2020-01-25T09:29:06Z</time>
      </trkpt>
      <trkpt lat="56.885348780557" lon="14.823293841969">
        <ele>160.8</ele>
        <time>2020-01-25T09:29:13Z</time>
      </trkpt>
      <trkpt lat="56.885248113938" lon="14.82323257028">
        <ele>161.6</ele>
        <time>2020-01-25T09:29:17Z</time>
      </trkpt>
      <trkpt lat="56.885063963595" lon="14.823270707925">
        <ele>161</ele>
        <time>2020-01-25T09:29:24Z</time>
      </trkpt>
      <trkpt lat="56.884874784112" lon="14.823331895795">
        <ele>161.6</ele>
        <time>2020-01-25T09:29:30Z</time>
      </trkpt>
      <trkpt lat="56.884686861914" lon="14.82333650584">
        <ele>161.6</ele>
        <time>2020-01-25T09:29:36Z</time>
      </trkpt>
      <trkpt lat="56.884494581128" lon="14.823460306503">
        <ele>161.4</ele>
        <time>2020-01-25T09:29:41Z</time>
      </trkpt>
      <trkpt lat="56.884312777717" lon="14.823412864949">
        <ele>162</ele>
        <time>2020-01-25T09:29:47Z</time>
      </trkpt>
      <trkpt lat="56.884111193022" lon="14.823428036188">
        <ele>162</ele>
        <time>2020-01-25T09:29:53Z</time>
      </trkpt>
      <trkpt lat="56.883903154264" lon="14.823473801362">
        <ele>161.8</ele>
        <time>2020-01-25T09:29:59Z</time>
      </trkpt>
      <trkpt lat="56.883727637278" lon="14.823505652582">
        <ele>162.4</ele>
        <time>2020-01-25T09:30:04Z</time>
      </trkpt>
      <trkpt lat="56.88365706168" lon="14.823200048508">
        <ele>162.2</ele>
        <time>2020-01-25T09:30:10Z</time>
      </trkpt>
      <trkpt lat="56.88362353408" lon="14.822824623207">
        <ele>162</ele>
        <time>2020-01-25T09:30:16Z</time>
      </trkpt>
      <trkpt lat="56.883587743367" lon="14.822470487932">
        <ele>162.4</ele>
        <time>2020-01-25T09:30:22Z</time>
      </trkpt>
      <trkpt lat="56.883555389233" lon="14.822137726502">
        <ele>162.2</ele>
        <time>2020-01-25T09:30:28Z</time>
      </trkpt>
      <trkpt lat="56.883525046755" lon="14.82176825235">
        <ele>162.4</ele>
        <time>2020-01-25T09:30:35Z</time>
      </trkpt>
      <trkpt lat="56.883482550522" lon="14.821689211033">
        <ele>162.6</ele>
        <time>2020-01-25T09:30:37Z</time>
      </trkpt>
      <trkpt lat="56.883301920577" lon="14.821592567726">
        <ele>162.4</ele>
        <time>2020-01-25T09:30:43Z</time>
      </trkpt>
      <trkpt lat="56.88310385628" lon="14.821524171422">
        <ele>162.6</ele>
        <time>2020-01-25T09:30:49Z</time>
      </trkpt>
      <trkpt lat="56.882915934082" lon="14.821500115369">
        <ele>163</ele>
        <time>2020-01-25T09:30:55Z</time>
      </trkpt>
      <trkpt lat="56.882722731287" lon="14.821500283007">
        <ele>163</ele>
        <time>2020-01-25T09:31:01Z</time>
      </trkpt>
      <trkpt lat="56.882522906791" lon="14.821503300491">
        <ele>163</ele>
        <time>2020-01-25T09:31:07Z</time>
      </trkpt>
      <trkpt lat="56.882343534131" lon="14.821472203642">
        <ele>163</ele>
        <time>2020-01-25T09:31:13Z</time>
      </trkpt>
      <trkpt lat="56.882325596865" lon="14.821434736549">
        <ele>163</ele>
        <time>2020-01-25T09:31:14Z</time>
      </trkpt>
      <trkpt lat="56.882309922712" lon="14.821052605728">
        <ele>163.2</ele>
        <time>2020-01-25T09:31:20Z</time>
      </trkpt>
      <trkpt lat="56.882306150857" lon="14.82070123648">
        <ele>162.8</ele>
        <time>2020-01-25T09:31:26Z</time>
      </trkpt>
      <trkpt lat="56.88233272148" lon="14.820356824209">
        <ele>163</ele>
        <time>2020-01-25T09:31:32Z</time>
      </trkpt>
      <trkpt lat="56.882359962655" lon="14.820002856572">
        <ele>163.6</ele>
        <time>2020-01-25T09:31:38Z</time>
      </trkpt>
      <trkpt lat="56.882356442257" lon="14.819943177444">
        <ele>163.8</ele>
        <time>2020-01-25T09:31:39Z</time>
      </trkpt>
      <trkpt lat="56.882247142281" lon="14.819668502581">
        <ele>164</ele>
        <time>2020-01-25T09:31:46Z</time>
      </trkpt>
      <trkpt lat="56.882050167631" lon="14.819655259179">
        <ele>164.6</ele>
        <time>2020-01-25T09:31:52Z</time>
      </trkpt>
      <trkpt lat="56.881879428328" lon="14.819570769627">
        <ele>164.6</ele>
        <time>2020-01-25T09:31:59Z</time>
      </trkpt>
      <trkpt lat="56.881860485234" lon="14.819372789149">
        <ele>164.8</ele>
        <time>2020-01-25T09:32:03Z</time>
      </trkpt>
      <trkpt lat="56.881864340908" lon="14.81908017702">
        <ele>166.2</ele>
        <time>2020-01-25T09:32:08Z</time>
      </trkpt>
      <trkpt lat="56.881867442211" lon="14.818721347881">
        <ele>167</ele>
        <time>2020-01-25T09:32:14Z</time>
      </trkpt>
      <trkpt lat="56.881866184926" lon="14.818362267285">
        <ele>167.4</ele>
        <time>2020-01-25T09:32:20Z</time>
      </trkpt>
      <trkpt lat="56.88186249689" lon="14.818003605784">
        <ele>167.6</ele>
        <time>2020-01-25T09:32:26Z</time>
      </trkpt>
      <trkpt lat="56.881853947352" lon="14.81763010832">
        <ele>167.6</ele>
        <time>2020-01-25T09:32:32Z</time>
      </trkpt>
      <trkpt lat="56.8818532768" lon="14.817501529974">
        <ele>167.4</ele>
        <time>2020-01-25T09:32:34Z</time>
      </trkpt>
      <trkpt lat="56.881876159387" lon="14.817167678897">
        <ele>166</ele>
        <time>2020-01-25T09:32:40Z</time>
      </trkpt>
      <trkpt lat="56.881901388906" lon="14.816877497519">
        <ele>164.6</ele>
        <time>2020-01-25T09:32:45Z</time>
      </trkpt>
      <trkpt lat="56.881906837141" lon="14.816678008299">
        <ele>163.6</ele>
        <time>2020-01-25T09:32:48Z</time>
      </trkpt>
      <trkpt lat="56.881931396108" lon="14.81643149662">
        <ele>162.4</ele>
        <time>2020-01-25T09:32:52Z</time>
      </trkpt>
      <trkpt lat="56.881952686134" lon="14.816203844216">
        <ele>161.2</ele>
        <time>2020-01-25T09:32:56Z</time>
      </trkpt>
      <trkpt lat="56.881958972559" lon="14.81602413628">
        <ele>160</ele>
        <time>2020-01-25T09:32:59Z</time>
      </trkpt>
      <trkpt lat="56.881968527925" lon="14.815835794987">
        <ele>159</ele>
        <time>2020-01-25T09:33:02Z</time>
      </trkpt>
      <trkpt lat="56.881958721102" lon="14.815644352391">
        <ele>158</ele>
        <time>2020-01-25T09:33:06Z</time>
      </trkpt>
      <trkpt lat="56.881906585684" lon="14.815642005459">
        <ele>156.8</ele>
        <time>2020-01-25T09:33:08Z</time>
      </trkpt>
      <trkpt lat="56.881760908262" lon="14.815722471699">
        <ele>155.6</ele>
        <time>2020-01-25T09:33:12Z</time>
      </trkpt>
      <trkpt lat="56.881612548632" lon="14.815787515243">
        <ele>154.6</ele>
        <time>2020-01-25T09:33:16Z</time>
      </trkpt>
      <trkpt lat="56.881468044676" lon="14.81579447222">
        <ele>153.4</ele>
        <time>2020-01-25T09:33:20Z</time>
      </trkpt>
      <trkpt lat="56.881329659507" lon="14.81554050065">
        <ele>152.2</ele>
        <time>2020-01-25T09:33:26Z</time>
      </trkpt>
      <trkpt lat="56.881269477465" lon="14.815186616832">
        <ele>151.6</ele>
        <time>2020-01-25T09:33:32Z</time>
      </trkpt>
      <trkpt lat="56.881202673722" lon="14.815066168929">
        <ele>151.2</ele>
        <time>2020-01-25T09:33:35Z</time>
      </trkpt>
      <trkpt lat="56.881170822502" lon="14.815052338794">
        <ele>151</ele>
        <time>2020-01-25T09:33:36Z</time>
      </trkpt>
      <trkpt lat="56.880973093481" lon="14.81500657362">
        <ele>150.2</ele>
        <time>2020-01-25T09:33:44Z</time>
      </trkpt>
      <trkpt lat="56.880932357447" lon="14.814997018254">
        <ele>150</ele>
        <time>2020-01-25T09:33:45Z</time>
      </trkpt>
      <trkpt lat="56.880746363086" lon="14.814978997169">
        <ele>150</ele>
        <time>2020-01-25T09:33:49Z</time>
      </trkpt>
      <trkpt lat="56.880547544418" lon="14.814914875634">
        <ele>150.4</ele>
        <time>2020-01-25T09:33:55Z</time>
      </trkpt>
      <trkpt lat="56.880355179813" lon="14.814858297809">
        <ele>149.8</ele>
        <time>2020-01-25T09:34:01Z</time>
      </trkpt>
      <trkpt lat="56.880174968963" lon="14.814804821287">
        <ele>149.4</ele>
        <time>2020-01-25T09:34:07Z</time>
      </trkpt>
      <trkpt lat="56.879997943235" lon="14.814703484116">
        <ele>149.2</ele>
        <time>2020-01-25T09:34:13Z</time>
      </trkpt>
      <trkpt lat="56.879854948021" lon="14.814430150357">
        <ele>149.2</ele>
        <time>2020-01-25T09:34:19Z</time>
      </trkpt>
      <trkpt lat="56.87983072433" lon="14.814400143155">
        <ele>148.8</ele>
        <time>2020-01-25T09:34:20Z</time>
      </trkpt>
      <trkpt lat="56.879647076901" lon="14.814348007737">
        <ele>149</ele>
        <time>2020-01-25T09:34:26Z</time>
      </trkpt>
      <trkpt lat="56.879458400332" lon="14.814310959739">
        <ele>148.4</ele>
        <time>2020-01-25T09:34:32Z</time>
      </trkpt>
      <trkpt lat="56.87925824056" lon="14.814268631144">
        <ele>148.2</ele>
        <time>2020-01-25T09:34:38Z</time>
      </trkpt>
      <trkpt lat="56.879190598627" lon="14.814253292267">
        <ele>147.6</ele>
        <time>2020-01-25T09:34:40Z</time>
      </trkpt>
      <trkpt lat="56.879070653638" lon="14.814019521076">
        <ele>148.2</ele>
        <time>2020-01-25T09:34:46Z</time>
      </trkpt>
      <trkpt lat="56.879037628952" lon="14.813663290326">
        <ele>147.8</ele>
        <time>2020-01-25T09:34:52Z</time>
      </trkpt>
      <trkpt lat="56.878882060888" lon="14.813500430009">
        <ele>148.2</ele>
        <time>2020-01-25T09:34:59Z</time>
      </trkpt>
      <trkpt lat="56.878692797586" lon="14.813442091985">
        <ele>148.4</ele>
        <time>2020-01-25T09:35:05Z</time>
      </trkpt>
      <trkpt lat="56.878629681879" lon="14.813422310701">
        <ele>148.6</ele>
        <time>2020-01-25T09:35:07Z</time>
      </trkpt>
      <trkpt lat="56.878430360297" lon="14.813393644603">
        <ele>148.4</ele>
        <time>2020-01-25T09:35:13Z</time>
      </trkpt>
      <trkpt lat="56.87823061962" lon="14.813302281893">
        <ele>148.8</ele>
        <time>2020-01-25T09:35:20Z</time>
      </trkpt>
      <trkpt lat="56.878034902255" lon="14.813245620249">
        <ele>148.8</ele>
        <time>2020-01-25T09:35:26Z</time>
      </trkpt>
      <trkpt lat="56.877831389723" lon="14.813195496487">
        <ele>148</ele>
        <time>2020-01-25T09:35:33Z</time>
      </trkpt>
      <trkpt lat="56.877618070368" lon="14.813133638065">
        <ele>147.8</ele>
        <time>2020-01-25T09:35:40Z</time>
      </trkpt>
      <trkpt lat="56.877563336561" lon="14.813104385234">
        <ele>147.6</ele>
        <time>2020-01-25T09:35:42Z</time>
      </trkpt>
      <trkpt lat="56.877373737983" lon="14.8130385035">
        <ele>147</ele>
        <time>2020-01-25T09:35:48Z</time>
      </trkpt>
      <trkpt lat="56.877180116093" lon="14.812977399449">
        <ele>146.8</ele>
        <time>2020-01-25T09:35:54Z</time>
      </trkpt>
      <trkpt lat="56.877149019244" lon="14.81297061011">
        <ele>146.6</ele>
        <time>2020-01-25T09:35:55Z</time>
      </trkpt>
      <trkpt lat="56.876945339074" lon="14.812940938184">
        <ele>146.8</ele>
        <time>2020-01-25T09:36:01Z</time>
      </trkpt>
      <trkpt lat="56.876826148456" lon="14.812889473318">
        <ele>146</ele>
        <time>2020-01-25T09:36:04Z</time>
      </trkpt>
      <trkpt lat="56.87680318205" lon="14.812782520274">
        <ele>145.6</ele>
        <time>2020-01-25T09:36:06Z</time>
      </trkpt>
      <trkpt lat="56.876788597544" lon="14.812390750268">
        <ele>146.2</ele>
        <time>2020-01-25T09:36:12Z</time>
      </trkpt>
      <trkpt lat="56.876793626684" lon="14.812130659911">
        <ele>145.4</ele>
        <time>2020-01-25T09:36:16Z</time>
      </trkpt>
      <trkpt lat="56.876801757127" lon="14.811798401395">
        <ele>146.2</ele>
        <time>2020-01-25T09:36:22Z</time>
      </trkpt>
      <trkpt lat="56.876827741017" lon="14.811470501467">
        <ele>145.8</ele>
        <time>2020-01-25T09:36:28Z</time>
      </trkpt>
      <trkpt lat="56.876837715478" lon="14.811112929613">
        <ele>146.2</ele>
        <time>2020-01-25T09:36:34Z</time>
      </trkpt>
      <trkpt lat="56.876727828769" lon="14.810826100995">
        <ele>146</ele>
        <time>2020-01-25T09:36:40Z</time>
      </trkpt>
      <trkpt lat="56.876574607637" lon="14.81061278164">
        <ele>146.4</ele>
        <time>2020-01-25T09:36:46Z</time>
      </trkpt>
      <trkpt lat="56.876418033745" lon="14.810392672946">
        <ele>146</ele>
        <time>2020-01-25T09:36:53Z</time>
      </trkpt>
      <trkpt lat="56.876228518986" lon="14.810287815377">
        <ele>145.8</ele>
        <time>2020-01-25T09:37:00Z</time>
      </trkpt>
      <trkpt lat="56.876050152154" lon="14.810218077969">
        <ele>145.2</ele>
        <time>2020-01-25T09:37:05Z</time>
      </trkpt>
      <trkpt lat="56.875851165848" lon="14.810128643096">
        <ele>146</ele>
        <time>2020-01-25T09:37:11Z</time>
      </trkpt>
      <trkpt lat="56.875675648862" lon="14.810017582921">
        <ele>146</ele>
        <time>2020-01-25T09:37:17Z</time>
      </trkpt>
      <trkpt lat="56.875496024745" lon="14.809914653189">
        <ele>145.6</ele>
        <time>2020-01-25T09:37:23Z</time>
      </trkpt>
      <trkpt lat="56.875412038107" lon="14.809860506115">
        <ele>146.4</ele>
        <time>2020-01-25T09:37:26Z</time>
      </trkpt>
      <trkpt lat="56.875286561064" lon="14.809787415947">
        <ele>147.6</ele>
        <time>2020-01-25T09:37:30Z</time>
      </trkpt>
      <trkpt lat="56.875111630811" lon="14.809620448499">
        <ele>147.4</ele>
        <time>2020-01-25T09:37:37Z</time>
      </trkpt>
      <trkpt lat="56.874923792432" lon="14.809503185718">
        <ele>147.8</ele>
        <time>2020-01-25T09:37:45Z</time>
      </trkpt>
      <trkpt lat="56.874729751447" lon="14.809444931513">
        <ele>147.4</ele>
        <time>2020-01-25T09:37:51Z</time>
      </trkpt>
      <trkpt lat="56.874537889756" lon="14.80942087546">
        <ele>147</ele>
        <time>2020-01-25T09:37:56Z</time>
      </trkpt>
      <trkpt lat="56.874340076916" lon="14.809338816659">
        <ele>147.2</ele>
        <time>2020-01-25T09:38:03Z</time>
      </trkpt>
      <trkpt lat="56.874156680944" lon="14.809277042056">
        <ele>147.2</ele>
        <time>2020-01-25T09:38:09Z</time>
      </trkpt>
      <trkpt lat="56.873976302456" lon="14.809209903037">
        <ele>147</ele>
        <time>2020-01-25T09:38:15Z</time>
      </trkpt>
      <trkpt lat="56.87379743271" lon="14.809145027131">
        <ele>146.6</ele>
        <time>2020-01-25T09:38:21Z</time>
      </trkpt>
      <trkpt lat="56.873588471943" lon="14.80907721756">
        <ele>146.6</ele>
        <time>2020-01-25T09:38:28Z</time>
      </trkpt>
      <trkpt lat="56.873396442614" lon="14.808995410216">
        <ele>146.4</ele>
        <time>2020-01-25T09:38:35Z</time>
      </trkpt>
      <trkpt lat="56.873201311982" lon="14.808906729714">
        <ele>146.4</ele>
        <time>2020-01-25T09:38:41Z</time>
      </trkpt>
      <trkpt lat="56.873004756427" lon="14.80880145305">
        <ele>146</ele>
        <time>2020-01-25T09:38:46Z</time>
      </trkpt>
      <trkpt lat="56.872837788979" lon="14.808628869729">
        <ele>146.2</ele>
        <time>2020-01-25T09:38:51Z</time>
      </trkpt>
      <trkpt lat="56.872684903123" lon="14.808403396619">
        <ele>146.2</ele>
        <time>2020-01-25T09:38:57Z</time>
      </trkpt>
      <trkpt lat="56.872567556523" lon="14.808143138624">
        <ele>145.8</ele>
        <time>2020-01-25T09:39:03Z</time>
      </trkpt>
      <trkpt lat="56.872489185758" lon="14.807816998895">
        <ele>145.6</ele>
        <time>2020-01-25T09:39:09Z</time>
      </trkpt>
      <trkpt lat="56.872475104166" lon="14.80776712659">
        <ele>145.4</ele>
        <time>2020-01-25T09:39:10Z</time>
      </trkpt>
      <trkpt lat="56.872386088388" lon="14.807464875276">
        <ele>145.2</ele>
        <time>2020-01-25T09:39:16Z</time>
      </trkpt>
      <trkpt lat="56.872297240248" lon="14.807131610932">
        <ele>145.8</ele>
        <time>2020-01-25T09:39:23Z</time>
      </trkpt>
      <trkpt lat="56.872172936671" lon="14.806817960234">
        <ele>146.2</ele>
        <time>2020-01-25T09:39:30Z</time>
      </trkpt>
      <trkpt lat="56.872031031104" lon="14.806530125788">
        <ele>146.4</ele>
        <time>2020-01-25T09:39:36Z</time>
      </trkpt>
      <trkpt lat="56.871983673369" lon="14.806451419747">
        <ele>146.6</ele>
        <time>2020-01-25T09:39:38Z</time>
      </trkpt>
      <trkpt lat="56.871818717577" lon="14.806206249172">
        <ele>146.6</ele>
        <time>2020-01-25T09:39:44Z</time>
      </trkpt>
      <trkpt lat="56.87166004821" lon="14.805966107737">
        <ele>146</ele>
        <time>2020-01-25T09:39:50Z</time>
      </trkpt>
      <trkpt lat="56.871523842335" lon="14.805723870827">
        <ele>145.8</ele>
        <time>2020-01-25T09:39:56Z</time>
      </trkpt>
      <trkpt lat="56.871518310281" lon="14.805606440408">
        <ele>145.6</ele>
        <time>2020-01-25T09:39:58Z</time>
      </trkpt>
      <trkpt lat="56.871563907817" lon="14.805291700063">
        <ele>146</ele>
        <time>2020-01-25T09:40:04Z</time>
      </trkpt>
      <trkpt lat="56.871603135109" lon="14.804967320533">
        <ele>145.6</ele>
        <time>2020-01-25T09:40:10Z</time>
      </trkpt>
      <trkpt lat="56.871639847831" lon="14.80460882667">
        <ele>145.8</ele>
        <time>2020-01-25T09:40:16Z</time>
      </trkpt>
      <trkpt lat="56.871666418454" lon="14.804249913712">
        <ele>146</ele>
        <time>2020-01-25T09:40:22Z</time>
      </trkpt>
      <trkpt lat="56.871687540842" lon="14.803884127596">
        <ele>145.8</ele>
        <time>2020-01-25T09:40:28Z</time>
      </trkpt>
      <trkpt lat="56.871686283557" lon="14.803494117789">
        <ele>145.8</ele>
        <time>2020-01-25T09:40:34Z</time>
      </trkpt>
      <trkpt lat="56.871701370977" lon="14.803147777681">
        <ele>145.8</ele>
        <time>2020-01-25T09:40:40Z</time>
      </trkpt>
      <trkpt lat="56.871731797274" lon="14.802812166405">
        <ele>145.6</ele>
        <time>2020-01-25T09:40:46Z</time>
      </trkpt>
      <trkpt lat="56.871762391209" lon="14.80243120905">
        <ele>145.8</ele>
        <time>2020-01-25T09:40:52Z</time>
      </trkpt>
      <trkpt lat="56.871770018738" lon="14.802081180906">
        <ele>145.2</ele>
        <time>2020-01-25T09:40:58Z</time>
      </trkpt>
      <trkpt lat="56.871691647973" lon="14.801769709502">
        <ele>145.6</ele>
        <time>2020-01-25T09:41:04Z</time>
      </trkpt>
      <trkpt lat="56.871590813716" lon="14.80148908349">
        <ele>145.4</ele>
        <time>2020-01-25T09:41:10Z</time>
      </trkpt>
      <trkpt lat="56.871477909523" lon="14.801203093062">
        <ele>145.6</ele>
        <time>2020-01-25T09:41:16Z</time>
      </trkpt>
      <trkpt lat="56.871382942596" lon="14.800901009386">
        <ele>145.4</ele>
        <time>2020-01-25T09:41:22Z</time>
      </trkpt>
      <trkpt lat="56.871283114167" lon="14.80058635286">
        <ele>145.6</ele>
        <time>2020-01-25T09:41:28Z</time>
      </trkpt>
      <trkpt lat="56.871188398697" lon="14.800273791809">
        <ele>145.4</ele>
        <time>2020-01-25T09:41:34Z</time>
      </trkpt>
      <trkpt lat="56.871118493651" lon="14.799941449474">
        <ele>145.6</ele>
        <time>2020-01-25T09:41:40Z</time>
      </trkpt>
      <trkpt lat="56.871067783156" lon="14.799583542344">
        <ele>146</ele>
        <time>2020-01-25T09:41:46Z</time>
      </trkpt>
      <trkpt lat="56.871042972732" lon="14.799219348789">
        <ele>146</ele>
        <time>2020-01-25T09:41:52Z</time>
      </trkpt>
      <trkpt lat="56.871052025184" lon="14.798863788591">
        <ele>145.8</ele>
        <time>2020-01-25T09:41:58Z</time>
      </trkpt>
      <trkpt lat="56.871081948567" lon="14.798501606692">
        <ele>145.8</ele>
        <time>2020-01-25T09:42:05Z</time>
      </trkpt>
      <trkpt lat="56.871137520564" lon="14.798194577695">
        <ele>146.6</ele>
        <time>2020-01-25T09:42:11Z</time>
      </trkpt>
      <trkpt lat="56.871239947382" lon="14.797881178454">
        <ele>147</ele>
        <time>2020-01-25T09:42:18Z</time>
      </trkpt>
      <trkpt lat="56.871323347287" lon="14.797554703449">
        <ele>146.8</ele>
        <time>2020-01-25T09:42:25Z</time>
      </trkpt>
      <trkpt lat="56.871438598412" lon="14.797232335575">
        <ele>147</ele>
        <time>2020-01-25T09:42:32Z</time>
      </trkpt>
      <trkpt lat="56.871533565339" lon="14.796933101745">
        <ele>147</ele>
        <time>2020-01-25T09:42:38Z</time>
      </trkpt>
      <trkpt lat="56.871610762638" lon="14.796567650905">
        <ele>147.6</ele>
        <time>2020-01-25T09:42:44Z</time>
      </trkpt>
      <trkpt lat="56.871677985476" lon="14.79625961608">
        <ele>147.6</ele>
        <time>2020-01-25T09:42:49Z</time>
      </trkpt>
      <trkpt lat="56.871789632384" lon="14.795981923733">
        <ele>148</ele>
        <time>2020-01-25T09:42:55Z</time>
      </trkpt>
      <trkpt lat="56.871926844087" lon="14.795731053466">
        <ele>148.6</ele>
        <time>2020-01-25T09:43:02Z</time>
      </trkpt>
      <trkpt lat="56.872056595899" lon="14.795490073841">
        <ele>149.4</ele>
        <time>2020-01-25T09:43:09Z</time>
      </trkpt>
      <trkpt lat="56.872092051336" lon="14.795421006985">
        <ele>149.6</ele>
        <time>2020-01-25T09:43:11Z</time>
      </trkpt>
      <trkpt lat="56.872154161215" lon="14.795284717291">
        <ele>150.8</ele>
        <time>2020-01-25T09:43:14Z</time>
      </trkpt>
      <trkpt lat="56.872251055979" lon="14.794964025797">
        <ele>151.4</ele>
        <time>2020-01-25T09:43:21Z</time>
      </trkpt>
      <trkpt lat="56.872304700139" lon="14.794872160173">
        <ele>151.8</ele>
        <time>2020-01-25T09:43:23Z</time>
      </trkpt>
      <trkpt lat="56.872479043659" lon="14.794645765054">
        <ele>152.6</ele>
        <time>2020-01-25T09:43:29Z</time>
      </trkpt>
      <trkpt lat="56.872628241479" lon="14.794432529518">
        <ele>152.8</ele>
        <time>2020-01-25T09:43:35Z</time>
      </trkpt>
      <trkpt lat="56.872784563914" lon="14.794249385003">
        <ele>152.8</ele>
        <time>2020-01-25T09:43:41Z</time>
      </trkpt>
      <trkpt lat="56.872952118095" lon="14.794015362355">
        <ele>152.6</ele>
        <time>2020-01-25T09:43:48Z</time>
      </trkpt>
      <trkpt lat="56.873096286775" lon="14.793769102133">
        <ele>152.2</ele>
        <time>2020-01-25T09:43:54Z</time>
      </trkpt>
      <trkpt lat="56.873249843183" lon="14.793573552406">
        <ele>152.8</ele>
        <time>2020-01-25T09:44:00Z</time>
      </trkpt>
      <trkpt lat="56.873277587272" lon="14.793543461385">
        <ele>153</ele>
        <time>2020-01-25T09:44:01Z</time>
      </trkpt>
      <trkpt lat="56.873463330176" lon="14.793372135349">
        <ele>152.8</ele>
        <time>2020-01-25T09:44:08Z</time>
      </trkpt>
      <trkpt lat="56.873614539652" lon="14.793193936155">
        <ele>153.2</ele>
        <time>2020-01-25T09:44:14Z</time>
      </trkpt>
      <trkpt lat="56.873628453606" lon="14.793158983632">
        <ele>153.2</ele>
        <time>2020-01-25T09:44:15Z</time>
      </trkpt>
      <trkpt lat="56.873508676255" lon="14.79289763599">
        <ele>153.2</ele>
        <time>2020-01-25T09:44:22Z</time>
      </trkpt>
      <trkpt lat="56.873485542211" lon="14.792870897729">
        <ele>153</ele>
        <time>2020-01-25T09:44:23Z</time>
      </trkpt>
    </trkseg>
  </trk>
</gpx>